Time;durP1;ratioP1;P1;durP2;ratioP2;P2;SDS_P1;SDS_P2;PMS_P1;PMS_P2;Temp;Humidity;BMP_temperature;BMP_pressure;BME280_temperature;BME280_humidity;BME280_pressure;Samples;Min_cycle;Max_cycle;Signal;HPM_P1;HPM_P2
2023/10/20 00:00:48;;;;;;;11.13;2.97;;;;;;;;;;5014046;28;20186;-71
2023/10/20 00:03:15;;;;;;;11.27;3.43;;;;;;;;;;5014020;28;20201;-72
2023/10/20 00:05:42;;;;;;;7.90;2.73;;;;;;;;;;5014228;28;20182;-72
2023/10/20 00:08:09;;;;;;;8.23;2.83;;;;;;;;;;5014173;28;20366;-71
2023/10/20 00:10:36;;;;;;;6.57;2.87;;;;;;;;;;5013321;28;20186;-74
2023/10/20 00:13:04;;;;;;;7.90;3.00;;;;;;;;;;5025851;28;20200;-71
2023/10/20 00:15:31;;;;;;;7.17;2.70;;;;;;;;;;5033805;28;20213;-74
2023/10/20 00:18:29;;;;;;;9.37;2.67;;;;;;;;;;5033637;28;20184;-72
2023/10/20 00:20:56;;;;;;;13.07;2.90;;;;;;;;;;5026171;28;20270;-72
2023/10/20 00:23:23;;;;;;;6.70;1.97;;;;;;;;;;5013799;28;20217;-72
2023/10/20 00:25:51;;;;;;;9.93;2.00;;;;;;;;;;5013005;28;20285;-73
2023/10/20 00:28:18;;;;;;;6.47;2.20;;;;;;;;;;5012848;28;20281;-71
2023/10/20 00:30:45;;;;;;;10.83;2.23;;;;;;;;;;5012477;28;20188;-73
2023/10/20 00:33:12;;;;;;;10.53;2.43;;;;;;;;;;5014923;28;20189;-72
2023/10/20 00:35:39;;;;;;;6.37;2.67;;;;;;;;;;5014540;28;20592;-73
2023/10/20 00:38:07;;;;;;;5.43;1.97;;;;;;;;;;5014828;28;20754;-73
2023/10/20 00:40:34;;;;;;;8.13;2.10;;;;;;;;;;5014725;28;20192;-72
2023/10/20 00:43:01;;;;;;;7.87;2.77;;;;;;;;;;5014687;28;20189;-73
2023/10/20 00:45:28;;;;;;;8.33;2.20;;;;;;;;;;5013526;28;20194;-73
2023/10/20 00:47:56;;;;;;;7.07;2.47;;;;;;;;;;4992535;28;20261;-72
2023/10/20 00:50:23;;;;;;;7.77;2.50;;;;;;;;;;5005888;28;20198;-72
2023/10/20 00:52:52;;;;;;;7.97;2.60;;;;;;;;;;5013038;28;20221;-72
2023/10/20 00:55:21;;;;;;;7.53;2.07;;;;;;;;;;5013022;28;20225;-72
2023/10/20 00:57:48;;;;;;;7.87;2.50;;;;;;;;;;5012883;28;20178;-75
2023/10/20 01:00:16;;;;;;;5.07;2.10;;;;;;;;;;5013453;28;20267;-73
2023/10/20 01:02:43;;;;;;;7.00;2.03;;;;;;;;;;5012955;28;20565;-75
2023/10/20 01:05:14;;;;;;;9.90;2.77;;;;;;;;;;5012497;28;20340;-71
2023/10/20 01:07:43;;;;;;;8.70;2.50;;;;;;;;;;5013138;28;20178;-73
2023/10/20 01:10:10;;;;;;;6.67;2.73;;;;;;;;;;5012903;28;20174;-72
2023/10/20 01:12:37;;;;;;;6.13;2.57;;;;;;;;;;5012812;28;20190;-70
2023/10/20 01:15:06;;;;;;;5.60;2.40;;;;;;;;;;5012928;28;20276;-70
2023/10/20 01:17:34;;;;;;;7.57;2.40;;;;;;;;;;5013216;28;20190;-71
2023/10/20 01:20:05;;;;;;;7.43;2.60;;;;;;;;;;5012589;28;20264;-72
2023/10/20 01:22:34;;;;;;;6.70;2.43;;;;;;;;;;5012863;28;20180;-72
2023/10/20 01:25:03;;;;;;;6.97;2.20;;;;;;;;;;5013074;28;20673;-71
2023/10/20 01:30:34;;;;;;;5.23;2.43;;;;;;;;;;5011853;28;20232;-71
2023/10/20 01:33:01;;;;;;;8.60;2.77;;;;;;;;;;5012446;28;20182;-72
2023/10/20 01:35:28;;;;;;;6.83;2.13;;;;;;;;;;5012558;28;20286;-70
2023/10/20 01:37:55;;;;;;;4.50;2.53;;;;;;;;;;5012148;28;20242;-72
2023/10/20 01:40:22;;;;;;;8.07;2.88;;;;;;;;;;5010774;28;20258;-73
2023/10/20 01:42:49;;;;;;;7.57;2.80;;;;;;;;;;5011557;28;20207;-73
2023/10/20 01:45:16;;;;;;;7.60;2.55;;;;;;;;;;5012021;28;20189;-74
2023/10/20 01:47:43;;;;;;;5.40;2.90;;;;;;;;;;5011455;28;20175;-73
2023/10/20 01:50:12;;;;;;;4.97;2.63;;;;;;;;;;5011552;28;20251;-72
2023/10/20 01:52:39;;;;;;;6.10;2.43;;;;;;;;;;5011653;28;20776;-73
2023/10/20 01:55:06;;;;;;;6.53;2.47;;;;;;;;;;5011093;28;20674;-71
2023/10/20 01:57:33;;;;;;;8.87;2.67;;;;;;;;;;5011242;28;20209;-71
2023/10/20 02:00:01;;;;;;;7.28;2.58;;;;;;;;;;5011550;28;20189;-72
2023/10/20 02:02:29;;;;;;;5.03;2.45;;;;;;;;;;5009373;28;20192;-71
2023/10/20 02:04:56;;;;;;;5.78;2.25;;;;;;;;;;5015463;28;20193;-72
2023/10/20 02:07:23;;;;;;;4.80;2.30;;;;;;;;;;5010050;28;20189;-73
2023/10/20 02:09:50;;;;;;;3.90;2.47;;;;;;;;;;5009301;28;20253;-72
2023/10/20 02:12:17;;;;;;;6.35;2.70;;;;;;;;;;5010966;28;20636;-72
2023/10/20 02:14:44;;;;;;;7.35;2.95;;;;;;;;;;5010355;28;20237;-72
2023/10/20 02:17:11;;;;;;;5.03;2.95;;;;;;;;;;5010618;28;20542;-73
2023/10/20 02:19:38;;;;;;;5.57;2.40;;;;;;;;;;5011247;28;20194;-73
2023/10/20 02:22:05;;;;;;;6.38;3.40;;;;;;;;;;5010666;28;20185;-72
2023/10/20 02:24:33;;;;;;;6.35;3.65;;;;;;;;;;5012912;28;20189;-73
2023/10/20 02:27:00;;;;;;;9.97;3.77;;;;;;;;;;5013379;28;20547;-73
2023/10/20 02:29:30;;;;;;;5.93;3.75;;;;;;;;;;5008460;28;20197;-72
2023/10/20 02:31:57;;;;;;;6.47;3.17;;;;;;;;;;5013147;28;20192;-73
2023/10/20 02:37:28;;;;;;;6.63;3.27;;;;;;;;;;4886801;28;3572146;-72
2023/10/20 02:39:55;;;;;;;12.27;4.55;;;;;;;;;;5013321;28;20186;-71
2023/10/20 02:42:22;;;;;;;9.68;4.20;;;;;;;;;;5013923;28;20174;-70
2023/10/20 02:44:49;;;;;;;10.43;3.75;;;;;;;;;;5020693;28;20224;-72
2023/10/20 02:47:16;;;;;;;6.53;4.00;;;;;;;;;;5013121;28;20305;-72
2023/10/20 02:49:43;;;;;;;11.00;3.88;;;;;;;;;;5012490;28;20670;-72
2023/10/20 02:52:13;;;;;;;7.82;3.90;;;;;;;;;;5012441;28;20186;-70
2023/10/20 02:54:40;;;;;;;6.57;4.20;;;;;;;;;;5016699;28;20229;-71
2023/10/20 02:57:07;;;;;;;10.67;4.27;;;;;;;;;;5016768;28;20185;-73
2023/10/20 02:59:34;;;;;;;29.80;6.80;;;;;;;;;;5016915;28;20178;-72
2023/10/20 03:02:01;;;;;;;14.02;5.30;;;;;;;;;;5016322;28;20240;-71
2023/10/20 03:04:29;;;;;;;11.10;6.18;;;;;;;;;;5016734;28;20263;-73
2023/10/20 03:06:56;;;;;;;13.60;6.07;;;;;;;;;;5016451;28;20265;-73
2023/10/20 03:09:23;;;;;;;8.98;6.22;;;32.50;44.80;;;;;;5016624;28;20182;-69
2023/10/20 03:11:50;;;;;;;16.52;6.55;;;32.20;49.10;;;;;;5016549;28;20276;-70
2023/10/20 03:14:17;;;;;;;11.40;6.40;;;32.20;46.40;;;;;;5016298;28;20205;-75
2023/10/20 03:16:45;;;;;;;11.57;6.65;;;32.10;45.10;;;;;;5015169;28;20216;-74
2023/10/20 03:19:12;;;;;;;13.35;7.70;;;31.80;44.60;;;;;;5016452;28;20264;-70
2023/10/20 03:21:39;;;;;;;23.70;8.50;;;31.70;50.10;;;;;;5015779;28;20186;-73
2023/10/20 03:24:07;;;;;;;15.02;6.88;;;31.40;46.00;;;;;;5016052;28;20192;-72
2023/10/20 03:26:34;;;;;;;12.47;7.57;;;31.40;51.90;;;;;;5015541;28;20178;-69
2023/10/20 03:29:01;;;;;;;9.70;6.20;;;31.40;48.40;;;;;;5016372;28;20181;-70
2023/10/20 03:31:29;;;;;;;9.57;7.00;;;31.60;47.10;;;;;;5015744;28;20173;-73
2023/10/20 03:33:56;;;;;;;16.60;8.63;;;31.50;46.10;;;;;;5015967;28;20604;-73
2023/10/20 03:36:23;;;;;;;13.77;9.17;;;31.50;49.20;;;;;;4994036;28;20315;-74
2023/10/20 03:38:51;;;;;;;14.97;8.90;;;31.20;54.40;;;;;;5014752;28;20174;-76
2023/10/20 03:41:18;;;;;;;14.63;8.90;;;31.20;65.00;;;;;;5016127;28;20545;-69
2023/10/20 03:43:45;;;;;;;16.23;8.33;;;31.20;56.80;;;;;;5014914;28;20178;-72
2023/10/20 03:46:13;;;;;;;15.77;8.37;;;31.10;56.80;;;;;;5023709;28;20196;-73
2023/10/20 03:48:41;;;;;;;10.00;8.03;;;31.10;59.50;;;;;;5035659;28;20223;-71
2023/10/20 03:51:12;;;;;;;10.13;7.17;;;30.90;53.70;;;;;;5034144;28;20192;-72
2023/10/20 03:53:52;;;;;;;14.50;8.63;;;31.10;59.60;;;;;;5035541;28;20331;-72
2023/10/20 03:56:22;;;;;;;14.87;9.00;;;31.30;56.70;;;;;;5034126;28;20520;-72
2023/10/20 03:58:49;;;;;;;14.07;9.23;;;31.20;62.20;;;;;;5035467;28;20177;-71
2023/10/20 04:01:16;;;;;;;14.07;9.00;;;30.90;58.50;;;;;;5035374;28;20296;-72
2023/10/20 04:03:49;;;;;;;16.90;10.00;;;31.00;65.60;;;;;;5035290;28;20177;-71
2023/10/20 04:06:16;;;;;;;12.37;9.00;;;30.80;63.00;;;;;;5035386;28;20186;-72
2023/10/20 04:08:44;;;;;;;16.83;10.03;;;30.80;62.60;;;;;;5035507;28;20259;-71
2023/10/20 04:11:12;;;;;;;17.30;9.50;;;30.40;68.10;;;;;;5035378;28;20165;-72
2023/10/20 04:13:40;;;;;;;17.00;10.33;;;30.30;66.10;;;;;;5035095;28;20173;-72
2023/10/20 04:16:14;;;;;;;16.40;9.10;;;30.40;69.90;;;;;;5035371;28;20217;-73
2023/10/20 04:18:42;;;;;;;12.07;9.60;;;30.80;73.00;;;;;;5035269;28;20182;-72
2023/10/20 04:21:13;;;;;;;14.63;9.50;;;30.70;68.80;;;;;;5035176;28;20185;-72
2023/10/20 04:23:43;;;;;;;12.13;9.00;;;30.60;67.50;;;;;;5035028;28;20177;-72
2023/10/20 04:26:21;;;;;;;12.50;9.33;;;30.40;67.20;;;;;;5035140;28;20189;-72
2023/10/20 04:29:07;;;;;;;14.17;9.37;;;30.10;71.30;;;;;;5034259;28;20181;-72
2023/10/20 04:53:23;;;;;;;15.17;9.03;;;29.90;72.70;;;;;;5034837;28;20288;-72
2023/10/20 05:02:03;;;;;;;14.93;8.57;;;29.30;75.50;;;;;;5034395;28;20185;-71
2023/10/20 05:04:16;;;;;;;15.53;8.03;;;29.30;76.20;;;;;;5028548;28;20193;-72
2023/10/20 05:06:44;;;;;;;13.43;7.07;;;29.40;78.80;;;;;;5034264;28;20177;-72
2023/10/20 05:09:15;;;;;;;17.60;7.30;;;29.60;81.90;;;;;;5034305;28;20174;-71
2023/10/20 05:11:42;;;;;;;12.43;7.93;;;29.60;77.30;;;;;;5034084;28;20205;-71
2023/10/20 05:14:10;;;;;;;13.10;6.83;;;29.60;77.80;;;;;;5033983;28;20288;-72
2023/10/20 05:16:37;;;;;;;15.53;6.50;;;29.40;73.60;;;;;;5033182;28;20247;-72
2023/10/20 05:19:04;;;;;;;11.13;6.80;;;29.30;78.90;;;;;;5034046;28;20173;-73
2023/10/20 05:21:38;;;;;;;9.50;7.00;;;29.00;79.40;;;;;;5033833;28;20186;-73
2023/10/20 05:24:08;;;;;;;14.10;7.03;;;28.50;87.50;;;;;;5034608;28;20177;-72
2023/10/20 05:26:35;;;;;;;13.03;6.57;;;28.80;91.20;;;;;;5033985;28;20165;-72
2023/10/20 05:29:08;;;;;;;10.10;6.33;;;28.80;90.30;;;;;;5033729;28;20522;-71
2023/10/20 05:31:36;;;;;;;10.07;5.73;;;28.90;87.80;;;;;;5033846;28;20312;-71
2023/10/20 05:34:03;;;;;;;10.20;6.00;;;28.80;84.40;;;;;;5033839;28;20178;-72
2023/10/20 05:36:31;;;;;;;12.43;5.97;;;28.40;89.80;;;;;;5032014;28;20229;-71
2023/10/20 05:38:58;;;;;;;14.03;5.87;;;28.20;91.40;;;;;;5033651;28;20325;-72
2023/10/20 05:41:27;;;;;;;8.57;5.20;;;28.20;91.00;;;;;;5033568;28;20666;-73
2023/10/20 05:43:54;;;;;;;9.93;6.00;;;27.90;93.00;;;;;;5033649;28;20226;-72
2023/10/20 05:46:22;;;;;;;11.90;6.10;;;27.70;93.00;;;;;;5033557;28;20181;-73
2023/10/20 05:48:49;;;;;;;14.60;5.90;;;27.70;93.90;;;;;;5033990;28;20181;-73
2023/10/20 05:51:16;;;;;;;10.60;5.80;;;27.70;96.00;;;;;;5033280;28;20177;-71
2023/10/20 05:53:43;;;;;;;8.37;5.20;;;27.60;95.20;;;;;;5033422;28;20265;-73
2023/10/20 05:56:11;;;;;;;9.97;5.50;;;27.60;96.90;;;;;;5033546;28;20235;-71
2023/10/20 05:58:38;;;;;;;11.53;5.50;;;27.80;97.40;;;;;;5033412;28;20251;-73
2023/10/20 06:04:27;;;;;;;8.27;5.00;;;27.70;99.80;;;;;;5033501;28;20188;-72
2023/10/20 06:06:54;;;;;;;7.37;4.50;;;27.50;99.90;;;;;;5035130;28;20157;-75
2023/10/20 06:09:21;;;;;;;8.93;4.80;;;27.70;99.90;;;;;;5033582;28;20173;-73
2023/10/20 06:11:49;;;;;;;8.33;4.50;;;27.70;99.90;;;;;;5033109;28;20184;-72
2023/10/20 06:14:16;;;;;;;7.83;4.97;;;27.60;99.90;;;;;;5031969;28;20696;-73
2023/10/20 06:16:44;;;;;;;9.73;5.07;;;27.60;99.90;;;;;;5033314;28;20177;-74
2023/10/20 06:19:11;;;;;;;10.70;4.97;;;27.60;99.80;;;;;;5032081;28;20606;-73
2023/10/20 06:21:42;;;;;;;13.13;5.20;;;27.40;99.90;;;;;;5033231;28;20209;-72
2023/10/20 06:24:10;;;;;;;10.03;4.83;;;27.30;99.90;;;;;;5031897;28;20188;-73
2023/10/20 06:26:37;;;;;;;10.60;5.07;;;27.20;99.90;;;;;;5033924;28;20180;-74
2023/10/20 06:29:23;;;;;;;9.23;5.23;;;26.90;99.90;;;;;;5037706;28;20177;-74
2023/10/20 06:34:40;;;;;;;12.93;5.30;;;26.90;99.90;;;;;;5037655;28;20224;-73
2023/10/20 06:37:22;;;;;;;9.70;4.90;;;26.90;99.90;;;;;;5036860;28;20316;-72
2023/10/20 06:39:49;;;;;;;7.70;4.43;;;26.80;99.90;;;;;;5036991;28;20185;-72
2023/10/20 06:42:16;;;;;;;7.80;4.43;;;26.60;99.90;;;;;;5036958;28;20169;-73
2023/10/20 06:44:44;;;;;;;5.63;3.87;;;26.80;99.90;;;;;;5036780;28;20177;-73
2023/10/20 06:47:11;;;;;;;11.40;4.77;;;26.90;99.90;;;;;;5036985;28;20173;-72
2023/10/20 06:49:38;;;;;;;7.80;4.10;;;26.90;99.90;;;;;;5036802;28;20173;-73
2023/10/20 06:52:05;;;;;;;8.10;4.77;;;26.60;99.90;;;;;;5036797;28;20243;-72
2023/10/20 06:54:33;;;;;;;11.17;4.57;;;26.20;99.90;;;;;;5036718;28;20216;-73
2023/10/20 06:57:00;;;;;;;8.00;4.47;;;25.90;99.90;;;;;;5036626;28;20197;-73
2023/10/20 06:59:27;;;;;;;8.67;4.50;;;25.70;99.90;;;;;;5036755;28;20181;-72
2023/10/20 07:02:00;;;;;;;12.53;4.47;;;25.60;99.90;;;;;;5036840;28;20173;-72
2023/10/20 07:04:27;;;;;;;9.33;5.23;;;25.40;99.90;;;;;;5036747;28;20169;-73
2023/10/20 07:06:55;;;;;;;8.10;4.60;;;25.00;99.90;;;;;;5036378;28;20553;-72
2023/10/20 07:09:22;;;;;;;8.03;4.80;;;24.80;99.90;;;;;;5036474;28;20181;-73
2023/10/20 07:11:49;;;;;;;9.80;4.77;;;24.50;99.90;;;;;;5036473;28;20180;-73
2023/10/20 07:14:17;;;;;;;12.70;4.87;;;24.40;99.90;;;;;;5036487;28;20259;-72
2023/10/20 07:16:44;;;;;;;8.30;4.23;;;24.40;99.90;;;;;;5036474;28;20187;-71
2023/10/20 07:19:12;;;;;;;9.77;4.67;;;24.60;99.90;;;;;;5034927;28;20227;-72
2023/10/20 07:21:39;;;;;;;7.53;4.23;;;24.40;99.90;;;;;;5036308;28;20185;-73
2023/10/20 07:24:07;;;;;;;10.43;4.80;;;24.40;99.90;;;;;;5036160;28;20184;-74
2023/10/20 07:26:34;;;;;;;8.57;4.03;;;24.30;99.90;;;;;;5036302;28;20192;-71
2023/10/20 07:29:02;;;;;;;9.93;4.33;;;24.10;99.90;;;;;;5036431;28;20169;-72
2023/10/20 07:31:29;;;;;;;8.70;3.90;;;24.10;99.90;;;;;;5036016;28;20212;-72
2023/10/20 07:33:56;;;;;;;7.53;4.10;;;24.10;99.90;;;;;;5035912;28;20185;-72
2023/10/20 07:36:24;;;;;;;9.13;4.50;;;24.10;99.90;;;;;;5035693;28;20681;-71
2023/10/20 07:38:51;;;;;;;10.03;4.00;;;24.10;99.90;;;;;;5035077;28;20208;-73
2023/10/20 07:41:18;;;;;;;7.83;4.03;;;24.00;99.90;;;;;;5035887;28;20626;-71
2023/10/20 07:43:46;;;;;;;8.90;3.93;;;23.80;99.90;;;;;;5035920;28;20181;-72
2023/10/20 07:46:17;;;;;;;9.87;3.90;;;23.70;99.90;;;;;;5036235;28;20542;-71
2023/10/20 07:48:45;;;;;;;10.63;4.60;;;23.60;99.90;;;;;;5035663;28;20231;-71
2023/10/20 07:51:12;;;;;;;8.73;4.37;;;23.50;99.90;;;;;;5034306;28;20189;-73
2023/10/20 07:53:40;;;;;;;7.27;4.03;;;23.50;99.90;;;;;;5035542;28;20195;-74
2023/10/20 07:56:07;;;;;;;11.50;4.33;;;23.50;99.90;;;;;;5035505;28;20216;-73
2023/10/20 07:58:34;;;;;;;12.70;4.70;;;23.30;99.90;;;;;;5035698;28;20178;-73
2023/10/20 08:01:01;;;;;;;8.73;3.90;;;23.20;99.90;;;;;;5035519;28;20192;-73
2023/10/20 08:03:29;;;;;;;6.27;3.87;;;23.10;99.90;;;;;;5035731;28;20286;-73
2023/10/20 08:05:56;;;;;;;11.67;4.10;;;23.10;99.90;;;;;;5035924;28;20204;-74
2023/10/20 08:08:23;;;;;;;9.27;3.93;;;23.00;99.90;;;;;;5035648;28;20174;-72
2023/10/20 08:10:51;;;;;;;10.07;3.77;;;22.90;99.90;;;;;;5035457;28;20225;-72
2023/10/20 08:13:18;;;;;;;5.87;3.50;;;22.90;99.90;;;;;;5035163;28;20185;-73
2023/10/20 08:15:45;;;;;;;9.10;3.07;;;22.80;99.90;;;;;;5035523;28;20245;-73
2023/10/20 08:18:12;;;;;;;12.83;3.27;;;22.60;99.90;;;;;;5035292;28;20211;-72
2023/10/20 08:20:40;;;;;;;8.50;3.23;;;22.60;99.90;;;;;;5035310;28;20188;-72
2023/10/20 08:23:08;;;;;;;7.57;3.13;;;22.50;99.90;;;;;;5033894;28;20177;-74
2023/10/20 08:25:39;;;;;;;8.13;3.33;;;22.50;99.90;;;;;;5033860;28;20546;-73
2023/10/20 08:28:07;;;;;;;9.40;3.40;;;22.50;99.90;;;;;;5035116;28;20181;-75
2023/10/20 08:30:34;;;;;;;8.10;2.80;;;22.40;99.90;;;;;;5033807;28;20654;-73
2023/10/20 08:33:03;;;;;;;5.07;2.63;;;22.40;99.90;;;;;;5035086;28;20236;-70
2023/10/20 08:35:30;;;;;;;7.80;3.30;;;22.30;99.90;;;;;;5033485;28;20225;-73
2023/10/20 08:37:58;;;;;;;8.17;3.27;;;22.30;99.90;;;;;;5034694;28;20261;-74
2023/10/20 08:40:25;;;;;;;7.67;2.60;;;22.20;99.90;;;;;;5034952;28;20173;-75
2023/10/20 08:42:53;;;;;;;7.93;2.90;;;22.20;99.90;;;;;;5034782;28;20181;-71
2023/10/20 08:45:22;;;;;;;6.50;2.73;;;22.10;99.90;;;;;;5034928;28;20181;-72
2023/10/20 08:47:51;;;;;;;5.80;2.73;;;22.10;99.90;;;;;;5034983;28;20252;-72
2023/10/20 08:50:19;;;;;;;8.30;3.10;;;22.10;99.90;;;;;;5033969;28;20263;-72
2023/10/20 08:52:46;;;;;;;6.27;2.67;;;22.10;99.90;;;;;;5034859;28;20177;-75
2023/10/20 08:55:13;;;;;;;10.00;2.93;;;22.00;99.90;;;;;;5034685;28;20223;-73
2023/10/20 08:57:41;;;;;;;9.07;3.10;;;21.90;99.90;;;;;;5034923;28;20184;-72
2023/10/20 09:00:19;;;;;;;12.17;3.30;;;21.90;99.90;;;;;;5034569;28;20296;-75
2023/10/20 09:02:47;;;;;;;11.20;3.07;;;21.80;99.90;;;;;;5034234;28;20189;-73
2023/10/20 09:05:23;;;;;;;7.37;3.07;;;21.80;99.90;;;;;;5034432;28;20211;-73
2023/10/20 09:07:57;;;;;;;6.83;3.10;;;21.70;99.90;;;;;;5034789;28;20171;-72
2023/10/20 09:10:24;;;;;;;9.70;3.03;;;21.70;99.90;;;;;;5034323;28;20211;-72
2023/10/20 09:12:52;;;;;;;6.63;3.13;;;21.70;99.90;;;;;;5034393;28;20680;-74
2023/10/20 09:15:21;;;;;;;10.80;3.40;;;21.70;99.90;;;;;;5034137;28;20212;-73
2023/10/20 09:17:55;;;;;;;9.90;3.37;;;21.60;99.90;;;;;;5034361;28;20169;-74
2023/10/20 09:20:24;;;;;;;10.80;3.87;;;21.50;99.90;;;;;;5032885;28;20361;-73
2023/10/20 09:22:51;;;;;;;12.37;3.77;;;21.50;99.90;;;;;;5034012;28;20185;-73
2023/10/20 09:25:21;;;;;;;7.30;3.30;;;21.50;99.90;;;;;;5034151;28;20185;-74
2023/10/20 09:27:48;;;;;;;10.20;3.90;;;21.40;99.90;;;;;;5034531;28;20185;-75
2023/10/20 09:30:16;;;;;;;12.87;3.83;;;21.40;99.90;;;;;;5034039;28;20272;-73
2023/10/20 09:32:43;;;;;;;12.20;4.90;;;21.40;99.90;;;;;;5032521;28;20223;-75
2023/10/20 09:35:10;;;;;;;10.43;3.93;;;21.30;99.90;;;;;;5033874;28;20213;-72
2023/10/20 09:37:39;;;;;;;11.07;4.50;;;21.30;99.90;;;;;;5033673;28;20229;-72
2023/10/20 09:40:09;;;;;;;13.20;5.33;;;21.40;99.90;;;;;;5033674;28;20184;-75
2023/10/20 09:42:48;;;;;;;10.43;4.93;;;21.40;99.90;;;;;;5032496;28;20542;-73
2023/10/20 09:45:27;;;;;;;9.57;4.43;;;21.40;99.90;;;;;;5034218;28;20614;-72
2023/10/20 09:47:59;;;;;;;8.70;4.97;;;21.40;99.90;;;;;;5034104;28;20513;-73
2023/10/20 09:50:26;;;;;;;12.40;5.27;;;21.40;99.90;;;;;;5033907;28;20177;-74
2023/10/20 09:52:54;;;;;;;12.60;4.93;;;21.30;99.90;;;;;;5033896;28;20303;-71
2023/10/20 09:55:21;;;;;;;7.80;4.60;;;21.20;99.90;;;;;;5033511;28;20205;-73
2023/10/20 09:57:50;;;;;;;8.53;4.83;;;21.20;99.90;;;;;;5033763;28;20173;-74
2023/10/20 10:00:32;;;;;;;11.00;4.67;;;21.10;99.90;;;;;;5033376;28;20188;-74
2023/10/20 10:03:00;;;;;;;8.47;4.03;;;21.10;99.90;;;;;;5033307;28;20638;-74
2023/10/20 10:05:27;;;;;;;9.87;4.50;;;21.10;99.90;;;;;;5033426;28;20272;-72
2023/10/20 10:08:10;;;;;;;10.40;4.37;;;21.00;99.90;;;;;;5033388;28;20521;-73
2023/10/20 10:10:37;;;;;;;13.70;4.53;;;21.00;99.90;;;;;;5032277;28;20310;-74
2023/10/20 10:13:05;;;;;;;10.53;4.97;;;21.00;99.90;;;;;;5033574;28;20531;-73
2023/10/20 10:15:46;;;;;;;11.23;4.97;;;21.00;99.90;;;;;;5033389;28;20201;-75
2023/10/20 10:18:18;;;;;;;13.57;4.73;;;20.90;99.90;;;;;;5033659;28;20263;-74
2023/10/20 10:20:50;;;;;;;8.13;4.47;;;20.90;99.90;;;;;;5033349;28;20173;-74
2023/10/20 10:23:27;;;;;;;11.93;4.50;;;20.90;99.90;;;;;;5033033;28;20239;-73
2023/10/20 10:25:54;;;;;;;10.87;4.20;;;20.80;99.90;;;;;;5033497;28;20223;-72
2023/10/20 10:28:22;;;;;;;7.70;4.27;;;20.80;99.90;;;;;;5033278;28;20178;-73
2023/10/20 10:30:52;;;;;;;16.20;5.13;;;20.70;99.90;;;;;;5033156;28;20231;-72
2023/10/20 10:33:22;;;;;;;8.53;4.33;;;20.70;99.90;;;;;;5033145;28;20178;-73
2023/10/20 10:35:49;;;;;;;11.47;4.37;;;20.60;99.90;;;;;;5033108;28;20664;-73
2023/10/20 10:38:21;;;;;;;8.53;4.47;;;20.60;99.90;;;;;;5033138;28;20233;-72
2023/10/20 10:40:52;;;;;;;11.50;5.10;;;20.50;99.90;;;;;;5032958;28;20547;-73
2023/10/20 10:43:21;;;;;;;10.00;4.40;;;20.50;99.90;;;;;;5028801;28;20181;-74
2023/10/20 10:45:55;;;;;;;11.83;4.77;;;20.40;99.90;;;;;;5031833;28;20220;-73
2023/10/20 10:48:30;;;;;;;9.60;4.07;;;20.40;99.90;;;;;;5033303;28;20178;-73
2023/10/20 10:50:59;;;;;;;9.30;4.10;;;20.30;99.90;;;;;;5031632;28;20193;-74
2023/10/20 10:53:27;;;;;;;10.10;4.33;;;20.20;99.90;;;;;;5032700;28;20181;-75
2023/10/20 10:55:54;;;;;;;11.93;4.63;;;20.20;99.90;;;;;;5032829;28;20221;-74
2023/10/20 10:58:23;;;;;;;11.07;4.67;;;20.10;99.90;;;;;;5033462;28;20185;-72
2023/10/20 11:00:50;;;;;;;11.80;4.47;;;20.00;99.90;;;;;;5032581;28;20193;-73
2023/10/20 11:03:19;;;;;;;10.67;4.83;;;20.00;99.90;;;;;;5032532;28;20196;-73
2023/10/20 11:05:47;;;;;;;14.30;4.97;;;19.90;99.90;;;;;;5032988;28;20177;-73
2023/10/20 11:08:14;;;;;;;9.40;4.80;;;19.90;99.90;;;;;;5032601;28;20661;-74
2023/10/20 11:10:45;;;;;;;11.50;5.20;;;19.90;99.90;;;;;;5032567;28;20180;-74
2023/10/20 11:13:15;;;;;;;15.27;4.60;;;19.80;99.90;;;;;;5032846;28;20174;-72
2023/10/20 11:15:43;;;;;;;10.20;4.50;;;19.80;99.90;;;;;;5036443;28;20225;-73
2023/10/20 11:18:11;;;;;;;10.93;4.43;;;19.70;99.90;;;;;;5036584;28;20183;-73
2023/10/20 11:20:41;;;;;;;11.60;4.73;;;19.60;99.90;;;;;;5036422;28;20535;-73
2023/10/20 11:23:09;;;;;;;14.47;4.47;;;19.50;99.90;;;;;;5036145;28;20642;-73
2023/10/20 11:25:37;;;;;;;12.10;3.97;;;19.50;99.90;;;;;;5034863;28;20189;-73
2023/10/20 11:28:04;;;;;;;5.97;4.40;;;19.50;99.90;;;;;;5036439;28;20650;-73
2023/10/20 11:30:41;;;;;;;12.23;4.93;;;19.40;99.90;;;;;;5036102;28;20212;-72
2023/10/20 11:33:17;;;;;;;10.03;4.20;;;19.40;99.90;;;;;;5035056;28;20188;-72
2023/10/20 11:35:47;;;;;;;10.50;4.53;;;19.30;99.90;;;;;;5036540;28;20216;-72
2023/10/20 11:38:19;;;;;;;11.93;4.70;;;19.30;99.90;;;;;;5034538;28;20229;-73
2023/10/20 11:40:49;;;;;;;7.83;3.90;;;19.20;99.90;;;;;;5034713;28;20272;-73
2023/10/20 11:43:17;;;;;;;10.73;4.73;;;19.10;99.90;;;;;;5036049;28;20267;-73
2023/10/20 11:45:45;;;;;;;10.50;4.80;;;19.10;99.90;;;;;;5035823;28;20260;-73
2023/10/20 11:48:12;;;;;;;12.80;4.20;;;19.10;99.90;;;;;;5035762;28;20185;-73
2023/10/20 11:50:39;;;;;;;10.77;4.73;;;19.00;99.90;;;;;;5035908;28;20215;-72
2023/10/20 11:53:07;;;;;;;11.60;4.93;;;18.90;99.90;;;;;;5035881;28;20206;-73
2023/10/20 11:55:34;;;;;;;11.40;4.93;;;18.90;99.90;;;;;;5035790;28;20257;-72
2023/10/20 11:58:04;;;;;;;11.57;5.30;;;18.80;99.90;;;;;;5035610;28;20178;-74
2023/10/20 12:00:31;;;;;;;12.73;5.60;;;18.80;99.90;;;;;;5035596;28;20184;-73
2023/10/20 12:02:59;;;;;;;14.67;5.23;;;18.70;99.90;;;;;;5035501;28;20565;-72
2023/10/20 12:05:26;;;;;;;10.63;5.20;;;18.60;99.90;;;;;;5035678;28;20593;-72
2023/10/20 12:07:53;;;;;;;11.63;4.57;;;18.60;99.90;;;;;;5035682;28;20174;-72
2023/10/20 12:10:23;;;;;;;13.50;4.77;;;18.50;99.90;;;;;;5035508;28;20173;-70
2023/10/20 12:12:51;;;;;;;12.77;5.20;;;18.60;99.90;;;;;;5035555;28;20186;-73
2023/10/20 12:15:18;;;;;;;11.83;5.33;;;18.60;99.90;;;;;;5034005;28;20269;-73
2023/10/20 12:17:46;;;;;;;10.23;5.53;;;18.50;99.90;;;;;;5035684;28;20236;-72
2023/10/20 12:20:13;;;;;;;13.30;4.83;;;18.40;99.90;;;;;;5035330;28;20182;-71
2023/10/20 12:22:40;;;;;;;12.37;5.30;;;18.40;99.90;;;;;;5035574;28;20642;-73
2023/10/20 12:25:08;;;;;;;10.70;4.17;;;18.40;99.90;;;;;;5034968;28;20177;-72
2023/10/20 12:27:35;;;;;;;11.03;4.67;;;18.30;99.90;;;;;;5035326;28;20257;-72
2023/10/20 12:30:03;;;;;;;11.17;4.93;;;18.30;99.90;;;;;;5029477;28;20193;-73
2023/10/20 12:32:31;;;;;;;10.63;4.37;;;18.30;99.90;;;;;;5014737;28;20682;-70
2023/10/20 12:34:58;;;;;;;12.63;5.03;;;18.30;99.90;;;;;;5013977;28;20213;-72
2023/10/20 12:37:26;;;;;;;12.13;4.70;;;18.30;99.90;;;;;;5015352;28;20249;-72
2023/10/20 12:39:53;;;;;;;10.13;4.30;;;18.20;99.90;;;;;;5015357;28;20710;-72
2023/10/20 12:42:20;;;;;;;8.47;4.27;;;18.20;99.90;;;;;;5014416;28;20186;-73
2023/10/20 12:44:48;;;;;;;11.13;5.00;;;18.20;99.90;;;;;;5014617;28;20597;-74
2023/10/20 12:47:16;;;;;;;9.83;4.30;;;18.10;99.90;;;;;;5014449;28;20185;-70
2023/10/20 12:49:44;;;;;;;10.73;5.03;;;18.10;99.90;;;;;;5014628;28;20284;-72
2023/10/20 12:52:12;;;;;;;12.87;4.70;;;18.00;99.90;;;;;;5014415;28;20205;-70
2023/10/20 12:54:41;;;;;;;15.80;4.80;;;18.00;99.90;;;;;;5014892;28;20217;-69
2023/10/20 12:57:09;;;;;;;13.83;4.73;;;18.10;99.90;;;;;;5014261;28;20204;-71
2023/10/20 12:59:36;;;;;;;12.00;5.03;;;18.10;99.90;;;;;;5014160;28;20214;-70
2023/10/20 13:02:04;;;;;;;14.97;4.50;;;18.00;99.90;;;;;;5012572;28;20229;-71
2023/10/20 13:04:32;;;;;;;12.03;4.80;;;17.90;99.90;;;;;;5014370;28;20182;-69
2023/10/20 13:07:00;;;;;;;12.03;4.60;;;17.90;99.90;;;;;;5012825;28;20182;-73
2023/10/20 13:09:28;;;;;;;11.53;4.63;;;17.80;99.90;;;;;;5014301;28;20217;-71
2023/10/20 13:11:59;;;;;;;10.43;4.47;;;17.80;99.90;;;;;;5014186;28;20186;-71
2023/10/20 13:14:28;;;;;;;12.17;4.63;;;17.80;99.90;;;;;;5014364;28;20209;-70
2023/10/20 13:16:56;;;;;;;11.10;4.43;;;17.80;99.90;;;;;;5013614;28;20188;-70
2023/10/20 13:19:29;;;;;;;10.43;5.53;;;17.80;99.90;;;;;;5014026;28;20537;-72
2023/10/20 13:21:57;;;;;;;11.37;4.67;;;17.80;99.90;;;;;;5013797;28;20209;-70
2023/10/20 13:24:25;;;;;;;11.97;4.63;;;17.80;99.90;;;;;;5013292;28;20170;-72
2023/10/20 13:26:52;;;;;;;10.47;4.57;;;17.70;99.90;;;;;;5013970;28;20265;-70
2023/10/20 13:29:20;;;;;;;11.57;4.87;;;17.70;99.90;;;;;;5014355;28;20178;-70
2023/10/20 13:31:48;;;;;;;12.23;4.30;;;17.70;99.90;;;;;;5014121;28;20271;-73
2023/10/20 13:34:15;;;;;;;9.87;4.57;;;17.70;99.90;;;;;;5013166;28;20643;-71
2023/10/20 13:36:43;;;;;;;10.60;4.50;;;17.70;99.90;;;;;;5012987;28;20225;-71
2023/10/20 13:39:11;;;;;;;10.63;4.37;;;17.50;99.90;;;;;;5011955;28;20561;-68
2023/10/20 13:41:39;;;;;;;12.63;5.00;;;17.50;99.90;;;;;;5013341;28;20191;-70
2023/10/20 13:44:08;;;;;;;10.47;5.27;;;17.60;99.90;;;;;;4994379;28;20175;-73
2023/10/20 13:46:35;;;;;;;12.03;5.10;;;17.60;99.90;;;;;;4994380;28;20170;-70
2023/10/20 13:49:03;;;;;;;13.97;6.10;;;17.50;99.90;;;;;;5011695;28;20192;-72
2023/10/20 13:51:31;;;;;;;11.67;4.40;;;17.40;99.90;;;;;;5012725;28;20597;-72